Observations for LIVERPOOL AIRPORT, United Kingdom (EGGP)

EGGP 150020Z 34013G28KT 240V040 8000 -SHRA BKN012 BKN022 BKN034TCU 04/04 Q0986  
EGGP 142350Z 25009KT 9999 -SHRA BKN019 BKN030 05/05 Q0986   
EGGP 142320Z 27013KT 9999 VCSH SCT014 BKN021 05/04 Q0987
EGGP 142250Z 27015KT 9999 VCSH SCT014 BKN025 06/05 Q0986
EGGP 142220Z 29014KT 9999 -SHRA SCT014 BKN025 05/04 Q0986   
EGGP 142150Z 30018G33KT 270V330 9999 -SHRA SCT017 BKN022 BKN034CB 06/04 Q0986   
EGGP 142120Z 25009KT 9999 VCTS FEW017 BKN024CB 04/04 Q0986  
EGGP 142050Z 28013KT 9000 VCSH FEW030 SCT036 06/04 Q0986
EGGP 142020Z 29012KT 9000 -SHRA SCT023 BKN035 07/04 Q0986   
EGGP 141950Z 29013KT 9999 FEW029 SCT040 06/04 Q0986 
EGGP 141920Z 29014KT 9999 FEW023 SCT034 06/04 Q0986 
EGGP 141850Z 27007KT 9999 FEW023 SCT031 05/04 Q0986 
EGGP 141820Z 27007KT 9999 VCSH FEW030 SCT036 05/04 Q0985
EGGP 141750Z 29008KT 9000 VCSH FEW020 SCT027 05/05 Q0985
EGGP 141720Z 30012G22KT 260V340 8000 VCSH SCT014 BKN022CB 05/04 Q0985   
EGGP 141650Z 27017KT 7000 -SHRA SCT011 BKN020CB 04/04 Q0984 RESHRA  
EGGP 141620Z 24010KT 9000 VCSH FEW011 SCT022CB BKN032 05/03 Q0984   
EGGP 141520Z 25012KT 9999 BKN035 06/02 Q0984
EGGP 141450Z 23010KT 9999 SCT028 06/03 Q0984
EGGP 141420Z 24012KT 9999 SCT028 BKN033 07/03 Q0984 
EGGP 141350Z 23012KT 9999 BKN033 06/02 Q0984
EGGP 141320Z 23011KT 9999 BKN036 06/03 Q0985
EGGP 141250Z 22012KT 9999 BKN031 07/03 Q0985
EGGP 141220Z 22014KT 9999 FEW032 06/03 Q0985
EGGP 141150Z 23014KT 9999 FEW032 06/03 Q0985
EGGP 141120Z 24014KT 9999 FEW032 06/03 Q0986
EGGP 141050Z 23014KT 9999 SCT033 05/03 Q0987
EGGP 141020Z 22011KT 9999 SCT032 05/03 Q0987
EGGP 140950Z 21010KT 9999 SCT028 05/03 Q0987
EGGP 140920Z 22010KT 9999 FEW026 SCT032 04/03 Q0987 
EGGP 140850Z 23012KT 9999 SCT022 04/03 Q0987
EGGP 140820Z 23011KT 9999 SCT025 04/02 Q0987
EGGP 140750Z 24010KT 9999 SCT025 04/03 Q0987
EGGP 140720Z 25012KT 9999 BKN027 05/03 Q0987
EGGP 140650Z 25013KT 9999 BKN030 05/03 Q0988
EGGP 140620Z 23010KT 9999 BKN025 05/03 Q0988
EGGP 140550Z 26019G29KT 9999 VCSH FEW019 BKN033 05/03 Q0988 
EGGP 140520Z 25018KT 9999 VCSH FEW019 SCT036 05/03 Q0987
EGGP 140450Z 26021KT 9999 -SHRA SCT019 BKN036 05/04 Q0987   
EGGP 140420Z 25019KT 9999 -SHRA SCT019 BKN025 04/04 Q0987   
EGGP 140350Z 29010G21KT 9999 -SHRA SCT011 BKN016 04/03 Q0988
EGGP 140320Z 27015KT 9999 -SHRA SCT011 BKN016 BKN038 04/03 Q0988
EGGP 140250Z 27022G33KT 9999 -SHRA SCT011 BKN016 BKN038 05/04 Q0988 RESHRA  
EGGP 140220Z 27023G35KT 9999 SHRA SCT011 BKN016 05/04 Q0988 
EGGP 140150Z 27021KT 9999 -SHRA SCT015 BKN024 05/04 Q0987   
EGGP 140120Z 27020G31KT 9999 -SHRA SCT014 BKN025 04/04 Q0988
EGGP 140050Z 26021KT 9999 -SHRA SCT015 BKN025 BKN040TCU 05/03 Q0987 
EGGP 140020Z 26021G31KT 9999 -SHRA BKN016 BKN027 BKN040TCU 05/04 Q0987  
EGGP 132350Z 26020KT 9999 -SHRA BKN015 BKN029 BKN034CB 05/03 Q0987